Time;durP1;ratioP1;P1;durP2;ratioP2;P2;SDS_P1;SDS_P2;PMS_P1;PMS_P2;Temp;Humidity;BMP_temperature;BMP_pressure;BME280_temperature;BME280_humidity;BME280_pressure;Samples;Min_cycle;Max_cycle;Signal;HPM_P1;HPM_P2
2021/07/04 00:00:49;;;;;;;4.80;2.15;;;;;;;18.60;61.40;99937.16;3572526;40;20438;-78
2021/07/04 00:03:16;;;;;;;6.38;2.40;;;;;;;18.52;62.78;99925.41;3565645;40;20076;-77
2021/07/04 00:05:48;;;;;;;5.18;2.03;;;;;;;18.58;63.25;99943.47;3573771;40;20109;-77
2021/07/04 00:08:19;;;;;;;6.18;2.33;;;;;;;18.56;62.79;99940.97;3579288;40;20060;-78
2021/07/04 00:10:55;;;;;;;9.05;2.00;;;;;;;18.56;62.65;99930.38;3566327;40;20052;-78
2021/07/04 00:13:22;;;;;;;4.33;2.23;;;;;;;18.53;63.28;99943.78;3562791;40;20057;-78
2021/07/04 00:15:50;;;;;;;6.90;2.10;;;;;;;18.57;63.33;99944.44;3575679;40;20057;-77
2021/07/04 00:18:19;;;;;;;4.93;2.10;;;;;;;18.57;63.08;99928.56;3578254;40;20053;-77
2021/07/04 00:20:49;;;;;;;7.75;2.63;;;;;;;18.60;63.58;99931.00;3578695;40;20540;-77
2021/07/04 00:23:18;;;;;;;8.25;2.55;;;;;;;18.55;63.77;99925.16;3559614;40;20053;-78
2021/07/04 00:25:47;;;;;;;5.85;2.53;;;;;;;18.57;63.45;99934.72;3562250;40;20073;-78
2021/07/04 00:28:14;;;;;;;5.95;2.50;;;;;;;18.53;63.79;99916.50;3577191;40;20503;-78
2021/07/04 00:30:41;;;;;;;5.45;2.00;;;;;;;18.60;64.66;99928.34;3561388;40;20066;-77
2021/07/04 00:33:09;;;;;;;4.25;1.90;;;;;;;18.60;64.33;99938.94;3573780;40;20041;-77
2021/07/04 00:35:37;;;;;;;4.80;2.13;;;;;;;18.59;64.03;99926.66;3552072;40;20078;-78
2021/07/04 00:38:08;;;;;;;6.03;2.33;;;;;;;18.59;63.94;99922.22;3575521;40;20041;-77
2021/07/04 00:40:36;;;;;;;4.78;2.05;;;;;;;18.58;63.72;99923.19;3563363;40;20060;-77
2021/07/04 00:43:05;;;;;;;5.47;2.28;;;;;;;18.61;64.95;99928.25;3568688;40;20116;-77
2021/07/04 00:45:34;;;;;;;5.07;2.33;;;;;;;18.61;64.08;99930.06;3571732;40;20056;-77
2021/07/04 00:48:02;;;;;;;5.20;2.20;;;;;;;18.58;63.96;99922.34;3561728;40;20444;-77
2021/07/04 00:50:36;;;;;;;4.40;1.83;;;;;;;18.63;63.41;99922.88;3577529;40;20394;-77
2021/07/04 00:53:08;;;;;;;5.70;1.90;;;;;;;18.61;63.81;99919.50;3542683;40;20065;-77
2021/07/04 00:55:38;;;;;;;6.07;2.47;;;;;;;18.55;64.31;99912.81;3560197;40;20054;-77
2021/07/04 00:58:15;;;;;;;7.35;2.70;;;;;;;18.67;63.67;99919.06;3568540;40;20089;-77
2021/07/04 01:00:44;;;;;;;6.85;2.20;;;;;;;18.63;64.56;99917.56;3549863;40;20652;-77
2021/07/04 01:03:13;;;;;;;5.18;2.17;;;;;;;18.62;64.72;99910.59;3565208;40;20134;-77
2021/07/04 01:05:46;;;;;;;4.57;2.22;;;;;;;18.67;63.95;99908.50;3554900;40;20073;-77
2021/07/04 01:08:17;;;;;;;6.28;2.47;;;;;;;18.71;64.63;99915.28;3568666;40;20073;-77
2021/07/04 01:10:48;;;;;;;4.97;2.33;;;;;;;18.72;64.51;99909.03;3571140;40;20053;-77
2021/07/04 01:13:19;;;;;;;5.32;1.88;;;;;;;18.73;63.85;99915.19;3558931;40;20106;-77
2021/07/04 01:15:54;;;;;;;5.28;2.35;;;;;;;18.73;64.21;99913.38;3545272;40;20064;-77
2021/07/04 01:18:23;;;;;;;;;;;;;;;18.80;62.20;99913.78;3576238;40;20103;-78
2021/07/04 01:21:03;;;;;;;5.45;1.92;;;;;;;18.78;64.00;99913.91;3558251;40;19947;-78
2021/07/04 01:23:34;;;;;;;4.40;1.83;;;;;;;18.70;65.14;99902.16;3571320;40;20088;-77
2021/07/04 01:26:08;;;;;;;5.97;2.17;;;;;;;18.77;64.18;99914.88;3574001;40;20081;-77
2021/07/04 01:28:37;;;;;;;5.72;2.00;;;;;;;18.71;64.84;99910.00;3566499;40;20131;-77
2021/07/04 01:31:06;;;;;;;5.00;2.05;;;;;;;18.70;64.83;99905.63;3560104;40;20085;-77
2021/07/04 01:33:37;;;;;;;7.05;1.90;;;;;;;18.72;64.47;99911.69;3560705;40;20544;-78
2021/07/04 01:36:12;;;;;;;10.27;3.75;;;;;;;18.70;65.02;99897.72;3559461;40;20060;-77
2021/07/04 01:38:44;;;;;;;6.28;2.40;;;;;;;18.77;64.84;99908.72;3577212;40;20056;-77
2021/07/04 01:41:14;;;;;;;5.60;2.45;;;;;;;18.75;64.54;99906.16;3563291;40;20155;-77
2021/07/04 01:43:44;;;;;;;6.57;2.65;;;;;;;18.77;65.17;99901.63;3564489;40;20069;-78
2021/07/04 01:46:14;;;;;;;4.68;2.20;;;;;;;18.78;65.07;99905.97;3564160;40;20073;-77
2021/07/04 01:48:42;;;;;;;10.65;3.40;;;;;;;18.78;65.08;99905.97;3552701;40;20066;-77
2021/07/04 01:51:16;;;;;;;7.20;1.88;;;;;;;18.79;64.40;99902.38;3550402;40;20164;-77
2021/07/04 01:53:43;;;;;;;7.45;3.42;;;;;;;18.75;65.54;99892.09;3561975;40;20110;-77
2021/07/04 01:56:36;;;;;;;4.78;1.75;;;;;;;18.80;64.43;99893.47;3568649;40;20579;-77
2021/07/04 01:59:08;;;;;;;5.80;2.50;;;;;;;18.66;64.35;99869.78;3549643;40;20056;-78
2021/07/04 02:02:06;;;;;;;8.88;2.10;;;;;;;18.74;65.12;99883.31;3549714;40;20050;-77
2021/07/04 02:04:42;;;;;;;6.47;2.38;;;;;;;18.78;64.80;99894.53;3557454;40;20980;-77
2021/07/04 02:07:31;;;;;;;7.07;2.42;;;;;;;18.79;64.49;99891.78;3557955;40;20053;-77
2021/07/04 02:10:04;;;;;;;5.80;1.55;;;;;;;18.79;64.46;99890.94;3551989;40;20065;-78
2021/07/04 02:12:41;;;;;;;5.57;2.28;;;;;;;18.79;64.77;99897.06;3561882;40;20116;-77
2021/07/04 02:15:15;;;;;;;4.65;1.77;;;;;;;18.81;64.57;99889.91;3572654;40;20057;-77
2021/07/04 02:18:17;;;;;;;8.68;3.55;;;;;;;18.80;63.95;99888.19;3554512;40;20065;-77
2021/07/04 02:21:13;;;;;;;5.05;1.98;;;;;;;18.73;64.86;99881.63;3546788;40;20454;-77
2021/07/04 02:24:21;;;;;;;5.75;2.22;;;;;;;18.74;65.27;99880.69;3533253;40;20329;-78
2021/07/04 02:26:58;;;;;;;5.03;2.20;;;;;;;18.76;64.89;99884.09;3533572;40;20046;-77
2021/07/04 02:29:39;;;;;;;6.78;2.20;;;;;;;18.79;64.66;99880.38;3534008;40;20062;-78
2021/07/04 02:32:10;;;;;;;4.47;1.75;;;;;;;18.72;64.77;99879.94;3533084;40;20050;-77
2021/07/04 02:34:37;;;;;;;5.87;2.33;;;;;;;18.70;65.47;99860.69;3536235;40;20058;-78
2021/07/04 02:37:07;;;;;;;5.55;1.90;;;;;;;18.73;65.37;99871.06;3541062;40;20105;-77
2021/07/04 02:39:55;;;;;;;5.95;2.20;;;;;;;18.71;64.96;99862.41;3539072;40;20511;-78
2021/07/04 02:42:23;;;;;;;5.20;2.10;;;;;;;18.71;65.26;99867.69;3547801;40;20057;-77
2021/07/04 02:44:51;;;;;;;3.88;1.75;;;;;;;18.66;65.63;99869.78;3548502;40;20049;-78
2021/07/04 02:47:27;;;;;;;4.68;2.17;;;;;;;18.58;65.01;99861.50;3567479;40;20652;-78
2021/07/04 02:49:58;;;;;;;7.07;2.10;;;;;;;18.69;65.24;99877.50;3552987;40;20046;-77
2021/07/04 02:52:26;;;;;;;4.20;1.75;;;;;;;18.61;65.90;99871.91;3559938;40;20736;-78
2021/07/04 02:54:59;;;;;;;5.65;1.70;;;;;;;18.59;65.36;99865.84;3553813;40;20432;-77
2021/07/04 02:57:32;;;;;;;6.18;2.50;;;;;;;18.59;66.11;99876.41;3551019;40;20070;-77
2021/07/04 03:00:07;;;;;;;6.72;1.88;;;;;;;18.54;65.85;99862.66;3538650;40;20090;-77
2021/07/04 03:02:35;;;;;;;5.18;2.17;;;;;;;18.49;65.87;99857.69;3557236;40;20093;-77
2021/07/04 03:05:08;;;;;;;3.58;1.42;;;;;;;18.46;65.74;99857.09;3567297;40;20069;-77
2021/07/04 03:07:40;;;;;;;5.60;2.22;;;;;;;18.51;65.69;99860.25;3562495;40;20084;-77
2021/07/04 03:10:13;;;;;;;7.53;1.95;;;;;;;18.48;65.46;99856.00;3568174;40;20058;-77
2021/07/04 03:12:42;;;;;;;4.60;2.05;;;;;;;18.44;65.70;99856.31;3559760;40;20106;-77
2021/07/04 03:15:12;;;;;;;4.13;1.77;;;;;;;18.43;65.78;99852.84;3558417;40;20078;-77
2021/07/04 03:17:41;;;;;;;4.78;1.83;;;;;;;18.37;65.99;99848.81;3553535;40;20054;-78
2021/07/04 03:20:14;;;;;;;3.85;1.52;;;;;;;18.38;65.36;99839.94;3559894;40;20049;-77
2021/07/04 03:22:45;;;;;;;4.93;1.60;;;;;;;18.35;65.82;99850.75;3556603;40;20068;-76
2021/07/04 03:25:16;;;;;;;4.85;2.30;;;;;;;18.33;65.97;99847.34;3559378;40;22254;-78
2021/07/04 03:27:47;;;;;;;5.78;2.20;;;;;;;18.35;65.32;99845.44;3543697;40;20056;-78
2021/07/04 03:30:17;;;;;;;4.05;1.48;;;;;;;18.33;65.93;99844.69;3560174;40;20066;-78
2021/07/04 03:32:47;;;;;;;6.53;2.08;;;;;;;18.30;66.61;99841.44;3569377;40;20057;-77
2021/07/04 03:35:19;;;;;;;6.88;2.35;;;;;;;18.30;66.31;99846.72;3548765;40;20149;-77
2021/07/04 03:37:50;;;;;;;8.85;2.53;;;;;;;18.28;66.68;99848.59;3558120;40;20085;-77
2021/07/04 03:40:18;;;;;;;3.63;1.60;;;;;;;18.19;66.21;99838.66;3574615;40;20057;-77
2021/07/04 03:42:52;;;;;;;4.00;1.55;;;;;;;18.22;66.53;99849.88;3555077;40;20053;-77
2021/07/04 03:45:28;;;;;;;4.68;1.73;;;;;;;18.13;66.07;99830.19;3566144;40;20060;-77
2021/07/04 03:47:57;;;;;;;5.75;2.08;;;;;;;18.12;66.74;99832.94;3555418;40;20830;-78
2021/07/04 03:50:36;;;;;;;4.70;1.50;;;;;;;18.09;66.48;99833.13;3570081;40;20064;-77
2021/07/04 03:53:03;;;;;;;3.58;1.63;;;;;;;18.11;66.21;99847.97;3579182;40;20065;-77
2021/07/04 03:55:33;;;;;;;3.25;1.50;;;;;;;18.13;66.56;99851.34;3569814;40;20057;-78
2021/07/04 03:58:02;;;;;;;3.53;1.45;;;;;;;18.08;66.08;99845.50;3554307;40;20063;-78
2021/07/04 04:00:40;;;;;;;4.28;1.50;;;;;;;18.10;65.79;99846.28;3564521;40;20056;-77
2021/07/04 04:03:21;;;;;;;2.88;1.35;;;;;;;18.12;65.43;99849.66;3563445;40;20065;-77
2021/07/04 04:05:57;;;;;;;4.30;1.30;;;;;;;18.08;66.77;99849.94;3560825;40;20049;-77
2021/07/04 04:08:28;;;;;;;4.78;1.85;;;;;;;18.07;66.79;99840.34;3558225;40;20058;-77
2021/07/04 04:11:00;;;;;;;4.32;1.60;;;;;;;18.10;66.16;99834.88;3569935;40;20702;-77
2021/07/04 04:13:28;;;;;;;3.13;1.42;;;;;;;18.10;66.61;99834.88;3565955;40;20062;-77
2021/07/04 04:16:07;;;;;;;2.83;1.17;;;;;;;18.11;66.17;99831.25;3565622;40;20057;-77
2021/07/04 04:18:39;;;;;;;5.55;1.60;;;;;;;18.12;65.93;99832.94;3572891;40;20052;-77
2021/07/04 04:21:11;;;;;;;5.28;2.13;;;;;;;18.11;66.52;99836.53;3562719;40;20347;-77
2021/07/04 04:23:43;;;;;;;17.20;5.97;;;;;;;18.12;67.17;99832.94;3548777;40;20066;-77
2021/07/04 04:26:39;;;;;;;13.68;6.25;;;;;;;18.25;65.68;99839.09;3576041;40;20063;-77
2021/07/04 04:29:07;;;;;;;9.85;4.10;;;;;;;18.21;66.44;99840.25;3571656;40;20088;-77
2021/07/04 04:31:39;;;;;;;13.30;4.72;;;;;;;18.26;66.62;99840.78;3565696;40;20384;-77
2021/07/04 04:34:06;;;;;;;15.50;6.63;;;;;;;18.23;67.44;99841.00;3565380;40;20064;-77
2021/07/04 04:36:33;;;;;;;16.33;6.05;;;;;;;18.23;66.88;99835.69;3568715;40;20503;-77
2021/07/04 04:39:06;;;;;;;20.27;8.80;;;;;;;18.29;66.76;99843.19;3567361;40;20089;-77
2021/07/04 04:41:36;;;;;;;14.90;6.20;;;;;;;18.30;66.14;99841.44;3574774;40;20057;-77
2021/07/04 04:44:05;;;;;;;18.25;8.48;;;;;;;18.34;66.23;99846.38;3573492;40;20049;-77
2021/07/04 04:46:33;;;;;;;10.65;4.05;;;;;;;18.31;67.38;99843.97;3572827;40;20061;-77
2021/07/04 04:49:00;;;;;;;9.60;3.15;;;;;;;18.32;66.77;99845.66;3569605;40;20413;-78
2021/07/04 04:51:31;;;;;;;7.68;3.42;;;;;;;18.37;66.54;99843.53;3565206;40;20048;-78
2021/07/04 04:53:59;;;;;;;8.35;2.85;;;;;;;18.35;66.86;99845.44;3558349;40;20532;-78
2021/07/04 04:56:28;;;;;;;7.13;2.80;;;;;;;18.37;67.02;99851.47;3563590;40;20053;-77
2021/07/04 04:58:56;;;;;;;7.43;2.53;;;;;;;18.36;67.19;99839.22;3572102;40;20100;-77
2021/07/04 05:01:26;;;;;;;5.88;2.38;;;;;;;18.34;66.83;99838.44;3561492;40;20140;-77
2021/07/04 05:03:52;;;;;;;10.10;3.20;;;;;;;18.41;67.48;99847.66;3575581;40;20085;-77
2021/07/04 05:06:20;;;;;;;6.70;2.08;;;;;;;18.39;67.15;99846.91;3571085;40;20048;-78
2021/07/04 05:08:49;;;;;;;5.13;1.80;;;;;;;18.45;67.38;99839.50;3587736;40;20083;-78
2021/07/04 05:11:17;;;;;;;4.53;1.85;;;;;;;18.47;67.53;99842.91;3577813;40;20349;-78
2021/07/04 05:13:44;;;;;;;5.20;2.00;;;;;;;18.46;67.33;99846.50;3575113;40;20491;-78
2021/07/04 05:16:13;;;;;;;5.55;2.20;;;;;;;18.47;67.30;99842.91;3555969;40;20052;-77
2021/07/04 05:18:40;;;;;;;4.68;1.63;;;;;;;18.47;67.95;99848.19;3564596;40;20053;-77
2021/07/04 05:21:13;;;;;;;8.75;2.33;;;;;;;18.53;67.09;99847.78;3574493;40;20110;-77
2021/07/04 05:23:41;;;;;;;5.65;1.92;;;;;;;18.52;68.14;99840.78;3571055;40;20775;-78
2021/07/04 05:26:07;;;;;;;5.25;1.88;;;;;;;18.50;67.49;99840.91;3570838;40;20086;-77
2021/07/04 05:28:34;;;;;;;4.70;1.52;;;;;;;18.53;67.76;99842.47;3571180;40;20080;-78
2021/07/04 05:31:01;;;;;;;5.53;1.90;;;;;;;18.54;67.52;99846.81;3567731;40;20053;-77
2021/07/04 05:33:29;;;;;;;5.90;1.92;;;;;;;18.57;67.70;99843.97;3571789;40;20280;-77
2021/07/04 05:35:56;;;;;;;5.28;1.75;;;;;;;18.60;67.73;99843.72;3556824;40;20049;-77
2021/07/04 05:38:30;;;;;;;4.43;1.60;;;;;;;18.60;67.63;99834.03;3568801;40;20180;-77
2021/07/04 05:40:58;;;;;;;4.85;1.58;;;;;;;18.67;67.37;99839.72;3569031;40;20435;-78
2021/07/04 05:43:29;;;;;;;3.08;0.93;;;;;;;18.72;67.27;99850.84;3572453;40;20310;-77
2021/07/04 05:46:00;;;;;;;2.13;1.23;;;;;;;18.71;67.19;99835.09;3571110;40;20061;-77
2021/07/04 05:48:28;;;;;;;5.05;1.50;;;;;;;18.67;67.55;99834.44;3545399;40;20053;-77
2021/07/04 05:50:56;;;;;;;3.08;0.77;;;;;;;18.73;67.33;99847.25;3562764;40;20061;-77
2021/07/04 05:53:24;;;;;;;3.65;1.00;;;;;;;18.75;66.91;99841.84;3563737;40;20140;-78
2021/07/04 05:55:51;;;;;;;1.77;0.52;;;;;;;18.70;66.63;99828.94;3566099;40;20127;-77
2021/07/04 05:58:20;;;;;;;3.08;0.90;;;;;;;18.76;66.71;99839.13;3549082;40;20862;-78
2021/07/04 06:00:51;;;;;;;2.40;0.80;;;;;;;18.75;66.62;99836.56;3566677;40;20080;-76
2021/07/04 06:03:19;;;;;;;1.42;0.60;;;;;;;18.71;66.82;99838.59;3572106;40;20229;-78
2021/07/04 06:05:47;;;;;;;2.47;0.90;;;;;;;18.72;67.13;99847.38;3568488;40;20127;-77
2021/07/04 06:08:14;;;;;;;1.60;0.70;;;;;;;18.69;66.90;99842.28;3579253;40;20057;-78
2021/07/04 06:10:44;;;;;;;1.80;0.75;;;;;;;18.69;67.27;99843.13;3567396;40;20062;-77
2021/07/04 06:13:16;;;;;;;4.00;1.17;;;;;;;18.71;67.22;99841.25;3565193;40;20410;-78
2021/07/04 06:15:45;;;;;;;2.20;0.80;;;;;;;18.73;67.16;99839.31;3565915;40;20056;-78
2021/07/04 06:18:13;;;;;;;3.13;0.80;;;;;;;18.73;67.52;99844.59;3579012;40;20065;-77
2021/07/04 06:20:43;;;;;;;2.40;1.08;;;;;;;18.70;66.97;99828.94;3580031;40;20057;-77
2021/07/04 06:23:12;;;;;;;3.08;1.15;;;;;;;18.72;66.90;99826.22;3570015;40;20093;-78
2021/07/04 06:25:42;;;;;;;2.63;1.13;;;;;;;18.74;66.89;99819.84;3580396;40;20057;-77
2021/07/04 06:28:08;;;;;;;3.08;1.05;;;;;;;18.71;67.34;99814.78;3566463;40;20063;-78
2021/07/04 06:30:35;;;;;;;3.57;1.20;;;;;;;18.78;67.28;99826.63;3570079;40;20052;-78
2021/07/04 06:33:07;;;;;;;4.28;1.63;;;;;;;18.84;66.94;99820.88;3570201;40;20053;-77
2021/07/04 06:35:39;;;;;;;4.22;1.63;;;;;;;18.89;66.56;99818.75;3568768;40;20138;-77
2021/07/04 06:38:07;;;;;;;3.10;1.15;;;;;;;18.90;66.90;99811.66;3574417;40;20061;-77
2021/07/04 06:40:34;;;;;;;2.50;1.00;;;;;;;18.99;66.48;99828.69;3572791;40;20759;-77
2021/07/04 06:43:01;;;;;;;4.67;1.00;;;;;;;19.01;66.11;99816.19;3576396;40;20088;-78
2021/07/04 06:45:28;;;;;;;6.13;1.42;;;;;;;19.05;66.20;99812.38;3557539;40;20751;-77
2021/07/04 06:47:55;;;;;;;3.17;1.30;;;;;;;19.11;65.78;99822.50;3577693;40;20103;-78
2021/07/04 06:50:28;;;;;;;3.10;1.13;;;;;;;19.19;65.23;99815.72;3565395;40;20086;-77
2021/07/04 06:52:56;;;;;;;2.30;1.20;;;;;;;19.24;65.51;99818.03;3559932;40;20855;-78
2021/07/04 06:55:25;;;;;;;2.10;0.98;;;;;;;19.24;65.03;99801.31;3563628;40;20065;-78
2021/07/04 06:57:53;;;;;;;6.65;1.38;;;;;;;19.33;64.25;99809.41;3560277;40;20071;-77
2021/07/04 07:00:20;;;;;;;3.95;1.40;;;;;;;19.30;64.28;99791.09;3559352;40;20058;-78
2021/07/04 07:02:47;;;;;;;3.67;1.67;;;;;;;19.36;64.38;99803.03;3555184;40;20113;-77
2021/07/04 07:05:15;;;;;;;3.47;1.20;;;;;;;19.41;64.52;99814.13;3563302;40;20053;-77
2021/07/04 07:07:42;;;;;;;4.53;1.60;;;;;;;19.41;64.21;99809.72;3555407;40;20140;-78
2021/07/04 07:10:11;;;;;;;3.85;1.33;;;;;;;19.45;64.54;99808.50;3557122;40;20078;-78
2021/07/04 07:12:43;;;;;;;3.28;1.25;;;;;;;19.44;64.42;99804.19;3558928;40;20303;-78
2021/07/04 07:15:12;;;;;;;3.45;1.33;;;;;;;19.49;63.67;99800.34;3566449;40;20053;-78
2021/07/04 07:17:39;;;;;;;;;;;;;;;19.62;63.76;99809.97;3569772;40;20077;-77
2021/07/04 07:20:11;;;;;;;5.80;1.48;;;;;;;19.59;63.79;99811.94;3556527;40;19997;-78
2021/07/04 07:22:39;;;;;;;3.97;1.25;;;;;;;19.67;63.92;99809.63;3566129;40;20093;-77
2021/07/04 07:25:12;;;;;;;4.75;1.40;;;;;;;19.65;63.55;99806.22;3555434;40;20343;-78
2021/07/04 07:27:39;;;;;;;3.05;1.42;;;;;;;19.71;63.38;99811.06;3560195;40;20073;-77
2021/07/04 07:30:15;;;;;;;3.17;1.35;;;;;;;19.82;63.43;99819.06;3567458;40;20061;-78
2021/07/04 07:32:43;;;;;;;2.88;1.15;;;;;;;19.84;63.34;99822.44;3573795;40;20069;-78
2021/07/04 07:35:19;;;;;;;2.97;1.40;;;;;;;19.97;63.00;99822.34;3574091;40;20064;-78
2021/07/04 07:37:50;;;;;;;4.97;1.88;;;;;;;20.01;62.22;99815.00;3560889;40;20072;-79
2021/07/04 07:40:19;;;;;;;6.28;2.33;;;;;;;20.11;61.05;99823.94;3572113;40;20049;-78
2021/07/04 07:42:57;;;;;;;5.88;1.92;;;;;;;20.18;61.74;99819.88;3566604;40;20789;-78
2021/07/04 07:45:29;;;;;;;4.28;1.60;;;;;;;20.24;61.63;99808.81;3573748;40;20060;-78
2021/07/04 07:48:04;;;;;;;6.72;1.75;;;;;;;20.22;60.42;99805.41;3554296;40;20422;-78
2021/07/04 07:50:40;;;;;;;4.82;1.88;;;;;;;20.33;60.38;99813.41;3552815;40;20056;-78
2021/07/04 07:53:11;;;;;;;4.57;2.17;;;;;;;20.36;60.36;99818.44;3575554;40;20307;-78
2021/07/04 07:55:39;;;;;;;4.20;1.90;;;;;;;20.42;60.53;99823.28;3575877;40;21409;-77
2021/07/04 07:58:06;;;;;;;5.00;2.00;;;;;;;20.49;60.69;99817.53;3566012;40;20064;-77
2021/07/04 08:00:33;;;;;;;4.93;2.30;;;;;;;20.47;61.02;99805.22;3573444;40;20727;-77
2021/07/04 08:03:03;;;;;;;5.45;1.63;;;;;;;20.61;61.07;99811.28;3570701;40;20089;-77
2021/07/04 08:05:31;;;;;;;5.72;2.35;;;;;;;20.63;60.38;99798.72;3574381;40;20073;-77
2021/07/04 08:07:57;;;;;;;5.45;2.20;;;;;;;20.70;60.00;99806.09;3581068;40;20106;-77
2021/07/04 08:10:33;;;;;;;5.93;2.10;;;;;;;20.76;59.34;99807.41;3557260;40;20064;-77
2021/07/04 08:13:02;;;;;;;4.20;1.60;;;;;;;20.88;59.63;99811.75;3566611;40;20387;-77
2021/07/04 08:15:32;;;;;;;3.70;1.52;;;;;;;20.91;59.46;99805.34;3564145;40;20489;-77
2021/07/04 08:18:02;;;;;;;4.20;1.90;;;;;;;20.91;59.14;99794.72;3564357;40;20448;-77
2021/07/04 08:20:32;;;;;;;5.28;2.17;;;;;;;21.04;58.08;99805.22;3556053;40;20089;-77
2021/07/04 08:23:01;;;;;;;5.70;1.65;;;;;;;21.07;59.17;99807.59;3560558;40;20682;-78
2021/07/04 08:25:28;;;;;;;6.47;2.00;;;;;;;21.05;59.11;99798.94;3555758;40;20050;-78
2021/07/04 08:27:55;;;;;;;7.40;2.50;;;;;;;21.10;57.77;99812.69;3567923;40;20040;-78
2021/07/04 08:30:23;;;;;;;5.80;1.77;;;;;;;21.16;58.25;99818.34;3559339;40;20410;-78
2021/07/04 08:32:50;;;;;;;5.38;1.92;;;;;;;21.13;58.20;99817.72;3554356;40;20056;-78
2021/07/04 08:35:18;;;;;;;4.88;1.80;;;;;;;21.16;58.63;99815.69;3574912;40;20602;-78
2021/07/04 08:37:47;;;;;;;5.57;1.80;;;;;;;21.19;59.04;99811.94;3571092;40;20431;-77
2021/07/04 08:40:14;;;;;;;6.30;2.17;;;;;;;21.23;59.09;99808.06;3561116;40;20088;-78
2021/07/04 08:42:46;;;;;;;6.97;2.22;;;;;;;21.33;59.04;99797.56;3576260;40;20105;-78
2021/07/04 08:45:13;;;;;;;4.95;1.83;;;;;;;21.38;58.20;99806.84;3566265;40;20705;-78
2021/07/04 08:47:40;;;;;;;6.05;2.00;;;;;;;21.43;57.86;99799.31;3562896;40;20505;-77
2021/07/04 08:50:09;;;;;;;5.60;2.10;;;;;;;21.49;58.19;99800.63;3557520;40;20061;-78
2021/07/04 08:52:39;;;;;;;4.75;2.08;;;;;;;21.60;57.64;99805.94;3562708;40;20135;-78
2021/07/04 08:55:07;;;;;;;4.32;1.77;;;;;;;21.69;57.05;99804.31;3558652;40;20443;-77
2021/07/04 08:57:34;;;;;;;4.53;1.65;;;;;;;21.80;56.88;99804.28;3552566;40;20140;-77
2021/07/04 09:00:01;;;;;;;4.40;1.60;;;;;;;21.93;55.42;99802.25;3540067;40;20069;-78
2021/07/04 09:02:39;;;;;;;4.95;2.05;;;;;;;22.08;56.34;99804.59;3558146;40;20109;-77
2021/07/04 09:05:12;;;;;;;3.92;1.40;;;;;;;22.02;56.13;99790.00;3558856;40;20407;-78
2021/07/04 09:07:40;;;;;;;3.22;1.40;;;;;;;22.01;55.79;99793.63;3559983;40;20054;-77
2021/07/04 09:10:20;;;;;;;5.97;1.40;;;;;;;22.13;56.16;99802.41;3558360;40;20050;-78
2021/07/04 09:12:51;;;;;;;4.68;1.48;;;;;;;22.11;55.98;99799.06;3545399;40;20119;-77
2021/07/04 09:15:22;;;;;;;4.60;1.30;;;;;;;22.15;55.34;99797.78;3564422;40;20794;-77
2021/07/04 09:17:56;;;;;;;3.38;1.55;;;;;;;22.14;55.03;99798.78;3553369;40;20057;-78
2021/07/04 09:20:30;;;;;;;2.83;1.13;;;;;;;22.21;55.73;99794.63;3546237;40;20066;-77
2021/07/04 09:23:00;;;;;;;2.80;1.20;;;;;;;22.21;54.78;99789.31;3549992;40;20061;-77
2021/07/04 09:25:32;;;;;;;3.17;1.20;;;;;;;22.31;55.44;99795.53;3539410;40;20080;-77
2021/07/04 09:28:05;;;;;;;2.78;1.00;;;;;;;22.39;55.57;99787.72;3550134;40;20096;-78
2021/07/04 09:30:34;;;;;;;1.95;0.80;;;;;;;22.45;54.98;99781.00;3552220;40;20083;-78
2021/07/04 09:33:19;;;;;;;1.88;0.90;;;;;;;22.62;55.93;99782.22;3550909;40;20157;-78
2021/07/04 09:35:58;;;;;;;1.50;0.80;;;;;;;22.74;55.53;99776.66;3546413;40;20062;-77
2021/07/04 09:38:30;;;;;;;2.33;0.90;;;;;;;22.81;53.67;99769.00;3544670;40;20064;-78
2021/07/04 09:40:58;;;;;;;2.28;0.80;;;;;;;22.94;53.60;99776.75;3542185;40;20144;-77
2021/07/04 09:43:29;;;;;;;;;;;;;;;23.24;55.97;99773.16;3543631;40;20045;-77
2021/07/04 09:46:05;;;;;;;3.33;0.80;;;;;;;23.34;54.46;99773.16;3551904;40;19937;-78
2021/07/04 09:48:32;;;;;;;2.40;1.10;;;;;;;23.43;52.84;99773.19;3552106;40;20576;-78
2021/07/04 09:51:11;;;;;;;3.22;1.25;;;;;;;23.73;54.00;99764.22;3551473;40;20061;-78
2021/07/04 09:53:45;;;;;;;4.15;1.20;;;;;;;24.03;53.69;99768.53;3549765;40;20126;-78
2021/07/04 09:56:17;;;;;;;3.28;1.42;;;;;;;24.30;51.33;99761.56;3545576;40;20133;-78
2021/07/04 09:58:48;;;;;;;3.65;1.20;;;;;;;24.67;51.94;99763.41;3556203;40;20056;-78
2021/07/04 10:01:31;;;;;;;4.68;1.90;;;;;;;25.01;51.71;99761.81;3556124;40;20056;-78
2021/07/04 10:03:58;;;;;;;3.55;1.52;;;;;;;25.10;50.00;99755.59;3556898;40;20059;-77
2021/07/04 10:06:26;;;;;;;5.53;1.58;;;;;;;25.29;50.05;99753.75;3552427;40;20056;-78
2021/07/04 10:08:54;;;;;;;3.65;1.60;;;;;;;25.43;48.72;99755.06;3574446;40;20052;-78
2021/07/04 10:11:20;;;;;;;5.40;2.17;;;;;;;25.46;49.31;99760.97;3559850;40;20502;-78
2021/07/04 10:13:49;;;;;;;6.32;2.42;;;;;;;25.50;49.27;99759.66;3557467;40;20128;-78
2021/07/04 10:16:17;;;;;;;7.57;2.17;;;;;;;25.49;49.11;99749.09;3559394;40;20085;-79
2021/07/04 10:18:47;;;;;;;6.82;2.50;;;;;;;25.58;49.49;99750.84;3571723;40;20068;-78
2021/07/04 10:21:17;;;;;;;5.03;2.00;;;;;;;25.82;50.06;99753.75;3544810;40;20061;-78
2021/07/04 10:23:50;;;;;;;6.35;2.40;;;;;;;26.19;50.09;99757.19;3543486;40;20062;-78
2021/07/04 10:26:18;;;;;;;7.00;2.28;;;;;;;26.36;49.15;99750.94;3558616;40;20061;-77
2021/07/04 10:28:47;;;;;;;6.57;2.10;;;;;;;26.62;47.01;99745.56;3556641;40;20060;-78
2021/07/04 10:31:18;;;;;;;5.22;1.92;;;;;;;26.93;46.78;99753.88;3557615;40;20139;-78
2021/07/04 10:33:46;;;;;;;6.50;2.58;;;;;;;27.18;45.14;99744.06;3559218;40;20053;-78
2021/07/04 10:36:20;;;;;;;4.93;1.63;;;;;;;27.49;45.86;99736.22;3559712;40;20048;-78
2021/07/04 10:38:56;;;;;;;5.72;2.30;;;;;;;27.77;46.60;99734.06;3554412;40;20123;-78
2021/07/04 10:41:26;;;;;;;9.75;2.33;;;;;;;28.00;44.79;99739.56;3545109;40;20069;-78
2021/07/04 10:43:55;;;;;;;4.28;1.65;;;;;;;28.29;43.43;99733.63;3556575;40;20099;-78
2021/07/04 10:46:40;;;;;;;14.90;2.88;;;;;;;28.63;46.25;99737.88;3557816;40;20060;-78
2021/07/04 10:49:22;;;;;;;7.38;2.33;;;;;;;28.88;45.85;99744.81;3561548;40;20049;-78
2021/07/04 10:51:56;;;;;;;8.43;2.47;;;;;;;29.04;43.84;99737.69;3544805;40;20131;-78
2021/07/04 10:54:38;;;;;;;2.98;1.13;;;;;;;29.22;43.61;99757.06;2671751;40;10023519;-78
2021/07/04 10:57:07;;;;;;;5.10;1.80;;;;;;;29.28;41.67;99744.78;2450871;40;10002179;-79
2021/07/04 11:00:05;;;;;;;5.80;2.30;;;;;;;29.50;44.18;99746.59;3562737;40;20159;-78
2021/07/04 11:02:51;;;;;;;10.43;3.00;;;;;;;29.58;44.59;99738.50;3552950;40;20100;-78
2021/07/04 11:05:34;;;;;;;8.73;2.83;;;;;;;29.64;43.85;99739.63;3553108;40;20058;-78
2021/07/04 11:08:01;;;;;;;6.93;2.65;;;;;;;29.52;39.94;99749.97;3556997;40;20412;-78
2021/07/04 11:10:29;;;;;;;8.93;3.20;;;;;;;29.42;41.53;99747.53;3573739;40;20050;-78
2021/07/04 11:13:09;;;;;;;6.50;3.17;;;;;;;29.37;42.68;99743.69;3558633;40;20069;-79
2021/07/04 11:15:37;;;;;;;5.32;2.53;;;;;;;29.24;40.93;99740.75;3563898;40;20057;-78
2021/07/04 11:18:06;;;;;;;7.38;2.67;;;;;;;29.26;41.01;99736.06;3569325;40;20339;-79
2021/07/04 11:20:47;;;;;;;8.02;2.88;;;;;;;29.31;42.20;99728.28;3558191;40;20508;-78
2021/07/04 11:23:36;;;;;;;8.23;2.75;;;;;;;29.21;41.79;99734.72;3558078;40;20057;-79
2021/07/04 11:26:06;;;;;;;8.57;3.17;;;;;;;29.06;41.22;99733.81;3556884;40;20071;-78
2021/07/04 11:28:40;;;;;;;9.25;2.88;;;;;;;28.87;41.75;99726.19;3565914;40;20099;-78
2021/07/04 11:31:13;;;;;;;7.68;2.63;;;;;;;28.74;42.53;99725.91;3571378;40;20068;-78
2021/07/04 11:33:43;;;;;;;8.38;3.03;;;;;;;28.61;41.67;99729.16;3558612;40;20115;-78
2021/07/04 11:36:11;;;;;;;6.65;2.90;;;;;;;28.45;41.74;99724.72;3562993;40;20089;-78
2021/07/04 11:38:40;;;;;;;8.40;3.55;;;;;;;28.29;42.45;99720.22;3566244;40;20049;-78
2021/07/04 11:41:14;;;;;;;7.57;2.97;;;;;;;28.15;43.04;99711.00;3553575;40;20104;-78
2021/07/04 11:43:42;;;;;;;9.13;3.05;;;;;;;27.99;43.28;99716.44;3577053;40;20080;-78
2021/07/04 11:46:13;;;;;;;6.70;2.95;;;;;;;27.91;43.03;99713.75;3568347;40;20052;-78
2021/07/04 11:48:51;;;;;;;8.25;2.97;;;;;;;27.85;43.06;99711.75;3565316;40;20615;-78
2021/07/04 11:51:41;;;;;;;10.70;3.90;;;;;;;27.83;44.08;99716.44;3547756;40;20091;-78
2021/07/04 11:54:18;;;;;;;11.65;3.17;;;;;;;27.81;43.57;99710.41;3556376;40;20060;-78